sensor_id;sensor_type;location;lat;lon;timestamp;P1;durP1;ratioP1;P2;durP2;ratioP2
17141;SDS011;32805;53.556;9.944;2022-09-09T00:01:46;26.98;;;18.88;;
17141;SDS011;32805;53.556;9.944;2022-09-09T00:04:21;23.70;;;17.10;;
17141;SDS011;32805;53.556;9.944;2022-09-09T00:06:56;27.98;;;19.60;;
17141;SDS011;32805;53.556;9.944;2022-09-09T00:09:30;26.48;;;20.00;;
17141;SDS011;32805;53.556;9.944;2022-09-09T00:12:00;23.83;;;18.15;;
17141;SDS011;32805;53.556;9.944;2022-09-09T00:14:37;26.45;;;18.88;;
17141;SDS011;32805;53.556;9.944;2022-09-09T00:17:12;24.58;;;16.13;;
17141;SDS011;32805;53.556;9.944;2022-09-09T00:19:44;29.02;;;19.70;;
17141;SDS011;32805;53.556;9.944;2022-09-09T00:22:18;27.33;;;19.42;;
17141;SDS011;32805;53.556;9.944;2022-09-09T00:24:49;25.80;;;19.33;;
17141;SDS011;32805;53.556;9.944;2022-09-09T00:27:23;26.92;;;20.17;;
17141;SDS011;32805;53.556;9.944;2022-09-09T00:29:58;24.15;;;16.40;;
17141;SDS011;32805;53.556;9.944;2022-09-09T00:32:30;26.80;;;18.63;;
17141;SDS011;32805;53.556;9.944;2022-09-09T00:35:00;24.13;;;18.73;;
17141;SDS011;32805;53.556;9.944;2022-09-09T00:37:38;23.25;;;17.13;;
17141;SDS011;32805;53.556;9.944;2022-09-09T00:40:08;21.42;;;16.33;;
17141;SDS011;32805;53.556;9.944;2022-09-09T00:42:50;26.70;;;19.63;;
17141;SDS011;32805;53.556;9.944;2022-09-09T00:45:38;27.33;;;18.67;;
17141;SDS011;32805;53.556;9.944;2022-09-09T00:48:21;26.98;;;20.02;;
17141;SDS011;32805;53.556;9.944;2022-09-09T00:50:55;31.30;;;21.27;;
17141;SDS011;32805;53.556;9.944;2022-09-09T00:53:29;25.50;;;19.38;;
17141;SDS011;32805;53.556;9.944;2022-09-09T00:56:06;32.03;;;20.35;;
17141;SDS011;32805;53.556;9.944;2022-09-09T00:58:40;31.38;;;20.85;;
17141;SDS011;32805;53.556;9.944;2022-09-09T01:01:12;29.77;;;20.02;;
17141;SDS011;32805;53.556;9.944;2022-09-09T01:03:42;30.38;;;20.90;;
17141;SDS011;32805;53.556;9.944;2022-09-09T01:06:16;27.10;;;18.35;;
17141;SDS011;32805;53.556;9.944;2022-09-09T01:08:52;26.98;;;19.00;;
17141;SDS011;32805;53.556;9.944;2022-09-09T01:11:32;24.30;;;16.08;;
17141;SDS011;32805;53.556;9.944;2022-09-09T01:14:14;28.90;;;19.88;;
17141;SDS011;32805;53.556;9.944;2022-09-09T01:16:53;24.88;;;18.52;;
17141;SDS011;32805;53.556;9.944;2022-09-09T01:19:24;24.63;;;16.63;;
17141;SDS011;32805;53.556;9.944;2022-09-09T01:22:01;20.90;;;15.52;;
17141;SDS011;32805;53.556;9.944;2022-09-09T01:24:38;21.48;;;16.33;;
17141;SDS011;32805;53.556;9.944;2022-09-09T01:27:27;22.67;;;17.45;;
17141;SDS011;32805;53.556;9.944;2022-09-09T01:29:55;18.65;;;14.23;;
17141;SDS011;32805;53.556;9.944;2022-09-09T01:32:37;23.38;;;16.90;;
17141;SDS011;32805;53.556;9.944;2022-09-09T01:35:09;21.52;;;15.60;;
17141;SDS011;32805;53.556;9.944;2022-09-09T01:37:40;24.67;;;18.10;;
17141;SDS011;32805;53.556;9.944;2022-09-09T01:40:08;22.73;;;16.17;;
17141;SDS011;32805;53.556;9.944;2022-09-09T01:42:38;24.45;;;16.17;;
17141;SDS011;32805;53.556;9.944;2022-09-09T01:45:07;25.50;;;18.17;;
17141;SDS011;32805;53.556;9.944;2022-09-09T01:47:36;23.40;;;15.35;;
17141;SDS011;32805;53.556;9.944;2022-09-09T01:50:12;25.88;;;16.50;;
17141;SDS011;32805;53.556;9.944;2022-09-09T01:52:43;23.08;;;14.90;;
17141;SDS011;32805;53.556;9.944;2022-09-09T01:55:18;26.15;;;17.48;;
17141;SDS011;32805;53.556;9.944;2022-09-09T01:57:57;29.80;;;18.40;;
17141;SDS011;32805;53.556;9.944;2022-09-09T02:00:39;21.30;;;15.27;;
17141;SDS011;32805;53.556;9.944;2022-09-09T02:03:15;24.75;;;17.20;;
17141;SDS011;32805;53.556;9.944;2022-09-09T02:05:59;25.10;;;17.55;;
17141;SDS011;32805;53.556;9.944;2022-09-09T02:08:33;26.77;;;17.65;;
17141;SDS011;32805;53.556;9.944;2022-09-09T02:11:09;29.23;;;18.60;;
17141;SDS011;32805;53.556;9.944;2022-09-09T02:14:01;26.50;;;17.85;;
17141;SDS011;32805;53.556;9.944;2022-09-09T02:16:36;24.17;;;16.38;;
17141;SDS011;32805;53.556;9.944;2022-09-09T02:19:09;23.45;;;16.67;;
17141;SDS011;32805;53.556;9.944;2022-09-09T02:22:06;23.25;;;17.20;;
17141;SDS011;32805;53.556;9.944;2022-09-09T02:24:35;27.90;;;18.20;;
17141;SDS011;32805;53.556;9.944;2022-09-09T02:27:12;26.67;;;17.63;;
17141;SDS011;32805;53.556;9.944;2022-09-09T02:29:42;22.33;;;14.70;;
17141;SDS011;32805;53.556;9.944;2022-09-09T02:32:15;22.25;;;15.32;;
17141;SDS011;32805;53.556;9.944;2022-09-09T02:34:47;22.00;;;15.60;;
17141;SDS011;32805;53.556;9.944;2022-09-09T02:37:18;21.23;;;15.00;;
17141;SDS011;32805;53.556;9.944;2022-09-09T02:39:51;22.25;;;14.88;;
17141;SDS011;32805;53.556;9.944;2022-09-09T02:42:21;22.70;;;16.30;;
17141;SDS011;32805;53.556;9.944;2022-09-09T02:44:53;23.63;;;16.33;;
17141;SDS011;32805;53.556;9.944;2022-09-09T02:47:25;23.10;;;16.65;;
17141;SDS011;32805;53.556;9.944;2022-09-09T02:50:05;16.50;;;12.90;;
17141;SDS011;32805;53.556;9.944;2022-09-09T02:52:44;18.58;;;14.38;;
17141;SDS011;32805;53.556;9.944;2022-09-09T02:55:18;20.05;;;15.05;;
17141;SDS011;32805;53.556;9.944;2022-09-09T02:57:53;24.67;;;15.68;;
17141;SDS011;32805;53.556;9.944;2022-09-09T03:00:26;18.83;;;13.02;;
17141;SDS011;32805;53.556;9.944;2022-09-09T03:02:59;18.83;;;13.38;;
17141;SDS011;32805;53.556;9.944;2022-09-09T03:05:27;19.05;;;13.77;;
17141;SDS011;32805;53.556;9.944;2022-09-09T03:07:55;21.27;;;14.93;;
17141;SDS011;32805;53.556;9.944;2022-09-09T03:10:23;19.15;;;13.90;;
17141;SDS011;32805;53.556;9.944;2022-09-09T03:12:51;17.25;;;13.32;;
17141;SDS011;32805;53.556;9.944;2022-09-09T03:15:18;19.13;;;15.05;;
17141;SDS011;32805;53.556;9.944;2022-09-09T03:17:48;22.02;;;15.73;;
17141;SDS011;32805;53.556;9.944;2022-09-09T03:20:16;18.17;;;14.25;;
17141;SDS011;32805;53.556;9.944;2022-09-09T03:22:43;19.70;;;14.73;;
17141;SDS011;32805;53.556;9.944;2022-09-09T03:25:12;18.63;;;14.55;;
17141;SDS011;32805;53.556;9.944;2022-09-09T03:27:40;17.75;;;13.20;;
17141;SDS011;32805;53.556;9.944;2022-09-09T03:30:10;20.02;;;14.13;;
17141;SDS011;32805;53.556;9.944;2022-09-09T03:32:39;18.55;;;14.30;;
17141;SDS011;32805;53.556;9.944;2022-09-09T03:35:08;17.98;;;14.80;;
17141;SDS011;32805;53.556;9.944;2022-09-09T03:37:36;19.95;;;14.50;;
17141;SDS011;32805;53.556;9.944;2022-09-09T03:40:05;17.08;;;12.65;;
17141;SDS011;32805;53.556;9.944;2022-09-09T03:42:36;18.77;;;14.77;;
17141;SDS011;32805;53.556;9.944;2022-09-09T03:45:04;16.55;;;13.13;;
17141;SDS011;32805;53.556;9.944;2022-09-09T03:47:36;17.27;;;13.07;;
17141;SDS011;32805;53.556;9.944;2022-09-09T03:50:05;18.17;;;14.27;;
17141;SDS011;32805;53.556;9.944;2022-09-09T03:52:42;16.92;;;11.85;;
17141;SDS011;32805;53.556;9.944;2022-09-09T03:55:16;18.48;;;13.80;;
17141;SDS011;32805;53.556;9.944;2022-09-09T03:57:44;18.55;;;13.80;;
17141;SDS011;32805;53.556;9.944;2022-09-09T04:00:12;16.75;;;13.00;;
17141;SDS011;32805;53.556;9.944;2022-09-09T04:02:48;18.70;;;13.32;;
17141;SDS011;32805;53.556;9.944;2022-09-09T04:05:18;16.15;;;12.35;;
17141;SDS011;32805;53.556;9.944;2022-09-09T04:07:47;13.35;;;11.05;;
17141;SDS011;32805;53.556;9.944;2022-09-09T04:10:14;12.00;;;10.73;;
17141;SDS011;32805;53.556;9.944;2022-09-09T04:12:43;16.80;;;12.82;;
17141;SDS011;32805;53.556;9.944;2022-09-09T04:15:15;15.18;;;11.07;;
17141;SDS011;32805;53.556;9.944;2022-09-09T04:17:45;16.67;;;12.30;;
17141;SDS011;32805;53.556;9.944;2022-09-09T04:20:13;16.90;;;13.10;;
17141;SDS011;32805;53.556;9.944;2022-09-09T04:22:42;15.63;;;11.82;;
17141;SDS011;32805;53.556;9.944;2022-09-09T04:25:10;15.48;;;12.30;;
17141;SDS011;32805;53.556;9.944;2022-09-09T04:27:37;15.65;;;12.52;;
17141;SDS011;32805;53.556;9.944;2022-09-09T04:30:06;16.55;;;11.02;;
17141;SDS011;32805;53.556;9.944;2022-09-09T04:32:35;17.70;;;13.90;;
17141;SDS011;32805;53.556;9.944;2022-09-09T04:35:03;16.63;;;11.60;;
17141;SDS011;32805;53.556;9.944;2022-09-09T04:37:31;15.55;;;11.93;;
17141;SDS011;32805;53.556;9.944;2022-09-09T04:40:01;14.77;;;11.60;;
17141;SDS011;32805;53.556;9.944;2022-09-09T04:42:30;13.65;;;11.38;;
17141;SDS011;32805;53.556;9.944;2022-09-09T04:44:57;13.23;;;11.55;;
17141;SDS011;32805;53.556;9.944;2022-09-09T04:47:25;12.68;;;9.82;;
17141;SDS011;32805;53.556;9.944;2022-09-09T04:49:53;11.93;;;10.15;;
17141;SDS011;32805;53.556;9.944;2022-09-09T04:52:21;12.27;;;10.15;;
17141;SDS011;32805;53.556;9.944;2022-09-09T04:54:48;15.55;;;11.57;;
17141;SDS011;32805;53.556;9.944;2022-09-09T04:57:18;11.75;;;8.80;;
17141;SDS011;32805;53.556;9.944;2022-09-09T04:59:46;11.93;;;10.23;;
17141;SDS011;32805;53.556;9.944;2022-09-09T05:02:14;13.27;;;10.23;;
17141;SDS011;32805;53.556;9.944;2022-09-09T05:04:42;13.05;;;10.27;;
17141;SDS011;32805;53.556;9.944;2022-09-09T05:07:09;11.63;;;9.38;;
17141;SDS011;32805;53.556;9.944;2022-09-09T05:09:38;9.27;;;8.27;;
17141;SDS011;32805;53.556;9.944;2022-09-09T05:12:06;11.30;;;8.82;;
17141;SDS011;32805;53.556;9.944;2022-09-09T05:14:37;12.13;;;10.73;;
17141;SDS011;32805;53.556;9.944;2022-09-09T05:17:05;12.27;;;9.65;;
17141;SDS011;32805;53.556;9.944;2022-09-09T05:19:36;11.00;;;8.20;;
17141;SDS011;32805;53.556;9.944;2022-09-09T05:22:03;9.95;;;8.90;;
17141;SDS011;32805;53.556;9.944;2022-09-09T05:24:39;11.85;;;9.80;;
17141;SDS011;32805;53.556;9.944;2022-09-09T05:27:07;9.52;;;8.48;;
17141;SDS011;32805;53.556;9.944;2022-09-09T05:29:40;13.75;;;9.98;;
17141;SDS011;32805;53.556;9.944;2022-09-09T05:32:09;9.70;;;8.38;;
17141;SDS011;32805;53.556;9.944;2022-09-09T05:34:42;11.88;;;9.10;;
17141;SDS011;32805;53.556;9.944;2022-09-09T05:37:10;10.98;;;9.77;;
17141;SDS011;32805;53.556;9.944;2022-09-09T05:39:38;10.63;;;8.65;;
17141;SDS011;32805;53.556;9.944;2022-09-09T05:42:06;8.48;;;7.38;;
17141;SDS011;32805;53.556;9.944;2022-09-09T05:44:34;11.63;;;9.70;;
17141;SDS011;32805;53.556;9.944;2022-09-09T05:47:03;10.63;;;8.30;;
17141;SDS011;32805;53.556;9.944;2022-09-09T05:49:31;8.95;;;7.57;;
17141;SDS011;32805;53.556;9.944;2022-09-09T05:51:58;10.60;;;8.15;;
17141;SDS011;32805;53.556;9.944;2022-09-09T05:54:26;10.52;;;9.40;;
17141;SDS011;32805;53.556;9.944;2022-09-09T05:56:54;9.82;;;8.35;;
17141;SDS011;32805;53.556;9.944;2022-09-09T05:59:22;10.50;;;8.60;;
17141;SDS011;32805;53.556;9.944;2022-09-09T06:01:53;9.70;;;8.32;;
17141;SDS011;32805;53.556;9.944;2022-09-09T06:04:29;10.40;;;8.00;;
17141;SDS011;32805;53.556;9.944;2022-09-09T06:06:59;9.23;;;7.68;;
17141;SDS011;32805;53.556;9.944;2022-09-09T06:09:28;11.40;;;7.85;;
17141;SDS011;32805;53.556;9.944;2022-09-09T06:11:56;12.65;;;8.57;;
17141;SDS011;32805;53.556;9.944;2022-09-09T06:14:25;9.07;;;8.10;;
17141;SDS011;32805;53.556;9.944;2022-09-09T06:16:56;9.95;;;8.45;;
17141;SDS011;32805;53.556;9.944;2022-09-09T06:19:29;7.88;;;6.65;;
17141;SDS011;32805;53.556;9.944;2022-09-09T06:21:58;8.27;;;6.93;;
17141;SDS011;32805;53.556;9.944;2022-09-09T06:24:27;9.55;;;8.07;;
17141;SDS011;32805;53.556;9.944;2022-09-09T06:26:57;8.35;;;7.50;;
17141;SDS011;32805;53.556;9.944;2022-09-09T06:29:28;9.32;;;7.03;;
17141;SDS011;32805;53.556;9.944;2022-09-09T06:31:55;10.13;;;7.65;;
17141;SDS011;32805;53.556;9.944;2022-09-09T06:34:25;9.50;;;7.63;;
17141;SDS011;32805;53.556;9.944;2022-09-09T06:36:57;14.35;;;7.88;;
17141;SDS011;32805;53.556;9.944;2022-09-09T06:39:30;10.38;;;7.47;;
17141;SDS011;32805;53.556;9.944;2022-09-09T06:41:58;10.82;;;7.35;;
17141;SDS011;32805;53.556;9.944;2022-09-09T06:44:45;9.10;;;6.88;;
17141;SDS011;32805;53.556;9.944;2022-09-09T06:47:34;7.72;;;6.93;;
17141;SDS011;32805;53.556;9.944;2022-09-09T06:50:03;10.02;;;7.13;;
17141;SDS011;32805;53.556;9.944;2022-09-09T06:52:36;8.25;;;7.05;;
17141;SDS011;32805;53.556;9.944;2022-09-09T06:55:04;9.10;;;7.82;;
17141;SDS011;32805;53.556;9.944;2022-09-09T06:57:33;9.00;;;6.78;;
17141;SDS011;32805;53.556;9.944;2022-09-09T07:00:08;8.98;;;7.18;;
17141;SDS011;32805;53.556;9.944;2022-09-09T07:02:37;8.35;;;6.88;;
17141;SDS011;32805;53.556;9.944;2022-09-09T07:05:07;10.05;;;7.03;;
17141;SDS011;32805;53.556;9.944;2022-09-09T07:07:38;8.38;;;6.97;;
17141;SDS011;32805;53.556;9.944;2022-09-09T07:10:08;8.82;;;6.93;;
17141;SDS011;32805;53.556;9.944;2022-09-09T07:12:36;7.00;;;6.30;;
17141;SDS011;32805;53.556;9.944;2022-09-09T07:15:08;8.60;;;6.10;;
17141;SDS011;32805;53.556;9.944;2022-09-09T07:17:42;6.35;;;5.10;;
17141;SDS011;32805;53.556;9.944;2022-09-09T07:20:10;7.43;;;5.18;;
17141;SDS011;32805;53.556;9.944;2022-09-09T07:22:40;7.55;;;5.05;;
17141;SDS011;32805;53.556;9.944;2022-09-09T07:25:09;9.00;;;5.82;;
17141;SDS011;32805;53.556;9.944;2022-09-09T07:27:37;6.10;;;4.93;;
17141;SDS011;32805;53.556;9.944;2022-09-09T07:30:07;5.63;;;5.00;;
17141;SDS011;32805;53.556;9.944;2022-09-09T07:32:35;9.63;;;4.80;;
17141;SDS011;32805;53.556;9.944;2022-09-09T07:35:03;6.85;;;5.50;;
17141;SDS011;32805;53.556;9.944;2022-09-09T07:37:31;9.02;;;5.50;;
17141;SDS011;32805;53.556;9.944;2022-09-09T07:40:00;6.80;;;4.30;;
17141;SDS011;32805;53.556;9.944;2022-09-09T07:42:30;5.22;;;3.97;;
17141;SDS011;32805;53.556;9.944;2022-09-09T07:44:57;6.18;;;4.35;;
17141;SDS011;32805;53.556;9.944;2022-09-09T07:47:26;8.45;;;4.10;;
17141;SDS011;32805;53.556;9.944;2022-09-09T07:49:53;4.40;;;3.90;;
17141;SDS011;32805;53.556;9.944;2022-09-09T07:52:26;8.68;;;5.35;;
17141;SDS011;32805;53.556;9.944;2022-09-09T07:54:58;7.03;;;4.40;;
17141;SDS011;32805;53.556;9.944;2022-09-09T07:57:28;6.22;;;4.28;;
17141;SDS011;32805;53.556;9.944;2022-09-09T07:59:56;8.07;;;4.53;;
17141;SDS011;32805;53.556;9.944;2022-09-09T08:02:25;6.15;;;4.32;;
17141;SDS011;32805;53.556;9.944;2022-09-09T08:04:55;5.78;;;4.35;;
17141;SDS011;32805;53.556;9.944;2022-09-09T08:07:23;5.72;;;4.30;;
17141;SDS011;32805;53.556;9.944;2022-09-09T08:09:53;7.45;;;5.07;;
17141;SDS011;32805;53.556;9.944;2022-09-09T08:12:25;4.63;;;4.00;;
17141;SDS011;32805;53.556;9.944;2022-09-09T08:14:56;5.28;;;3.92;;
17141;SDS011;32805;53.556;9.944;2022-09-09T08:17:28;5.68;;;3.83;;
17141;SDS011;32805;53.556;9.944;2022-09-09T08:19:59;8.40;;;3.97;;
17141;SDS011;32805;53.556;9.944;2022-09-09T08:22:31;3.28;;;2.97;;
17141;SDS011;32805;53.556;9.944;2022-09-09T08:25:00;5.68;;;4.18;;
17141;SDS011;32805;53.556;9.944;2022-09-09T08:27:29;5.50;;;4.20;;
17141;SDS011;32805;53.556;9.944;2022-09-09T08:29:59;4.25;;;3.53;;
17141;SDS011;32805;53.556;9.944;2022-09-09T08:32:28;3.58;;;2.80;;
17141;SDS011;32805;53.556;9.944;2022-09-09T08:34:57;6.40;;;3.70;;
17141;SDS011;32805;53.556;9.944;2022-09-09T08:37:28;4.68;;;2.83;;
17141;SDS011;32805;53.556;9.944;2022-09-09T08:39:56;5.10;;;3.10;;
17141;SDS011;32805;53.556;9.944;2022-09-09T08:42:27;3.85;;;2.90;;
17141;SDS011;32805;53.556;9.944;2022-09-09T08:48:03;12.77;;;7.68;;
17141;SDS011;32805;53.556;9.944;2022-09-09T08:50:42;18.88;;;10.43;;
17141;SDS011;32805;53.556;9.944;2022-09-09T08:53:16;7.53;;;4.43;;
17141;SDS011;32805;53.556;9.944;2022-09-09T08:55:50;7.90;;;4.70;;
17141;SDS011;32805;53.556;9.944;2022-09-09T08:58:25;5.88;;;3.80;;
17141;SDS011;32805;53.556;9.944;2022-09-09T09:01:02;4.72;;;3.10;;
17141;SDS011;32805;53.556;9.944;2022-09-09T09:03:48;4.22;;;2.50;;
17141;SDS011;32805;53.556;9.944;2022-09-09T09:06:26;3.13;;;2.47;;
17141;SDS011;32805;53.556;9.944;2022-09-09T09:09:07;6.78;;;3.63;;
17141;SDS011;32805;53.556;9.944;2022-09-09T09:11:43;4.88;;;2.85;;
17141;SDS011;32805;53.556;9.944;2022-09-09T09:14:15;3.85;;;2.45;;
17141;SDS011;32805;53.556;9.944;2022-09-09T09:16:50;5.47;;;3.70;;
17141;SDS011;32805;53.556;9.944;2022-09-09T09:19:21;2.50;;;2.10;;
17141;SDS011;32805;53.556;9.944;2022-09-09T09:21:54;3.33;;;2.08;;
17141;SDS011;32805;53.556;9.944;2022-09-09T09:24:38;2.17;;;1.98;;
17141;SDS011;32805;53.556;9.944;2022-09-09T09:27:13;4.22;;;3.08;;
17141;SDS011;32805;53.556;9.944;2022-09-09T09:29:48;3.83;;;2.15;;
17141;SDS011;32805;53.556;9.944;2022-09-09T09:32:40;2.85;;;1.90;;
17141;SDS011;32805;53.556;9.944;2022-09-09T09:35:16;2.15;;;1.73;;
17141;SDS011;32805;53.556;9.944;2022-09-09T09:37:43;2.30;;;1.70;;
17141;SDS011;32805;53.556;9.944;2022-09-09T09:40:33;2.30;;;1.52;;
17141;SDS011;32805;53.556;9.944;2022-09-09T09:43:01;2.58;;;1.15;;
17141;SDS011;32805;53.556;9.944;2022-09-09T09:45:35;2.28;;;1.50;;
17141;SDS011;32805;53.556;9.944;2022-09-09T09:48:32;2.55;;;1.60;;
17141;SDS011;32805;53.556;9.944;2022-09-09T09:51:08;2.95;;;1.88;;
17141;SDS011;32805;53.556;9.944;2022-09-09T09:53:39;3.15;;;2.13;;
17141;SDS011;32805;53.556;9.944;2022-09-09T09:56:10;2.70;;;1.63;;
17141;SDS011;32805;53.556;9.944;2022-09-09T09:58:47;3.03;;;1.88;;
17141;SDS011;32805;53.556;9.944;2022-09-09T10:01:21;4.88;;;2.35;;
17141;SDS011;32805;53.556;9.944;2022-09-09T10:03:52;3.28;;;1.95;;
17141;SDS011;32805;53.556;9.944;2022-09-09T10:06:31;3.95;;;1.98;;
17141;SDS011;32805;53.556;9.944;2022-09-09T10:09:01;8.27;;;3.50;;
17141;SDS011;32805;53.556;9.944;2022-09-09T10:11:34;3.15;;;1.98;;
17141;SDS011;32805;53.556;9.944;2022-09-09T10:14:13;4.32;;;2.65;;
17141;SDS011;32805;53.556;9.944;2022-09-09T10:16:50;4.28;;;2.20;;
17141;SDS011;32805;53.556;9.944;2022-09-09T10:19:29;3.50;;;2.03;;
17141;SDS011;32805;53.556;9.944;2022-09-09T10:22:08;7.10;;;3.20;;
17141;SDS011;32805;53.556;9.944;2022-09-09T10:24:48;3.85;;;1.88;;
17141;SDS011;32805;53.556;9.944;2022-09-09T10:27:28;3.47;;;2.15;;
17141;SDS011;32805;53.556;9.944;2022-09-09T10:30:05;5.05;;;2.35;;
17141;SDS011;32805;53.556;9.944;2022-09-09T10:32:45;3.67;;;2.40;;
17141;SDS011;32805;53.556;9.944;2022-09-09T10:35:25;4.72;;;2.60;;
17141;SDS011;32805;53.556;9.944;2022-09-09T10:38:04;5.20;;;1.85;;
17141;SDS011;32805;53.556;9.944;2022-09-09T10:40:42;3.85;;;1.80;;
17141;SDS011;32805;53.556;9.944;2022-09-09T10:43:20;2.13;;;1.50;;
17141;SDS011;32805;53.556;9.944;2022-09-09T10:46:01;3.03;;;1.60;;
17141;SDS011;32805;53.556;9.944;2022-09-09T10:48:40;3.97;;;1.75;;
17141;SDS011;32805;53.556;9.944;2022-09-09T10:51:22;3.53;;;1.90;;
17141;SDS011;32805;53.556;9.944;2022-09-09T10:54:00;4.38;;;1.95;;
17141;SDS011;32805;53.556;9.944;2022-09-09T10:56:41;2.97;;;1.73;;
17141;SDS011;32805;53.556;9.944;2022-09-09T10:59:13;3.67;;;1.98;;
17141;SDS011;32805;53.556;9.944;2022-09-09T11:01:44;2.15;;;1.50;;
17141;SDS011;32805;53.556;9.944;2022-09-09T11:04:16;2.25;;;1.30;;
17141;SDS011;32805;53.556;9.944;2022-09-09T11:06:49;4.03;;;1.50;;
17141;SDS011;32805;53.556;9.944;2022-09-09T11:09:22;3.50;;;1.33;;
17141;SDS011;32805;53.556;9.944;2022-09-09T11:11:52;1.77;;;1.40;;
17141;SDS011;32805;53.556;9.944;2022-09-09T11:14:22;3.15;;;1.83;;
17141;SDS011;32805;53.556;9.944;2022-09-09T11:17:03;2.08;;;1.60;;
17141;SDS011;32805;53.556;9.944;2022-09-09T11:19:35;2.83;;;1.50;;
17141;SDS011;32805;53.556;9.944;2022-09-09T11:22:07;1.92;;;1.30;;
17141;SDS011;32805;53.556;9.944;2022-09-09T11:24:45;2.45;;;1.50;;
17141;SDS011;32805;53.556;9.944;2022-09-09T11:27:19;2.17;;;1.15;;
17141;SDS011;32805;53.556;9.944;2022-09-09T11:36:19;2.83;;;1.35;;
17141;SDS011;32805;53.556;9.944;2022-09-09T11:39:12;2.13;;;1.30;;
17141;SDS011;32805;53.556;9.944;2022-09-09T11:41:55;2.78;;;1.40;;
17141;SDS011;32805;53.556;9.944;2022-09-09T11:44:33;2.63;;;1.45;;
17141;SDS011;32805;53.556;9.944;2022-09-09T11:47:14;2.35;;;1.35;;
17141;SDS011;32805;53.556;9.944;2022-09-09T11:49:46;2.63;;;1.27;;
17141;SDS011;32805;53.556;9.944;2022-09-09T11:52:19;1.92;;;1.50;;
17141;SDS011;32805;53.556;9.944;2022-09-09T11:54:50;1.35;;;1.25;;
17141;SDS011;32805;53.556;9.944;2022-09-09T11:57:23;2.50;;;1.52;;
17141;SDS011;32805;53.556;9.944;2022-09-09T11:59:54;3.83;;;1.20;;
17141;SDS011;32805;53.556;9.944;2022-09-09T12:02:23;2.33;;;1.33;;
17141;SDS011;32805;53.556;9.944;2022-09-09T12:04:56;2.80;;;1.23;;
17141;SDS011;32805;53.556;9.944;2022-09-09T12:07:30;1.58;;;1.17;;
17141;SDS011;32805;53.556;9.944;2022-09-09T12:10:03;4.03;;;1.70;;
17141;SDS011;32805;53.556;9.944;2022-09-09T12:12:34;3.85;;;1.40;;
17141;SDS011;32805;53.556;9.944;2022-09-09T12:15:20;2.28;;;1.52;;
17141;SDS011;32805;53.556;9.944;2022-09-09T12:17:55;1.95;;;1.45;;
17141;SDS011;32805;53.556;9.944;2022-09-09T12:20:31;3.40;;;1.50;;
17141;SDS011;32805;53.556;9.944;2022-09-09T12:23:19;2.25;;;1.42;;
17141;SDS011;32805;53.556;9.944;2022-09-09T12:26:00;3.78;;;1.70;;
17141;SDS011;32805;53.556;9.944;2022-09-09T12:28:39;3.17;;;1.40;;
17141;SDS011;32805;53.556;9.944;2022-09-09T12:31:15;5.70;;;3.17;;
17141;SDS011;32805;53.556;9.944;2022-09-09T12:33:48;2.53;;;2.00;;
17141;SDS011;32805;53.556;9.944;2022-09-09T12:36:19;4.90;;;1.70;;
17141;SDS011;32805;53.556;9.944;2022-09-09T12:38:52;4.60;;;1.90;;
17141;SDS011;32805;53.556;9.944;2022-09-09T12:41:23;2.33;;;1.40;;
17141;SDS011;32805;53.556;9.944;2022-09-09T12:44:02;3.67;;;1.70;;
17141;SDS011;32805;53.556;9.944;2022-09-09T12:46:35;3.05;;;1.60;;
17141;SDS011;32805;53.556;9.944;2022-09-09T12:49:18;3.10;;;1.80;;
17141;SDS011;32805;53.556;9.944;2022-09-09T12:52:01;4.13;;;1.48;;
17141;SDS011;32805;53.556;9.944;2022-09-09T12:54:47;4.20;;;1.67;;
17141;SDS011;32805;53.556;9.944;2022-09-09T12:57:18;1.83;;;1.25;;
17141;SDS011;32805;53.556;9.944;2022-09-09T12:59:49;3.28;;;1.70;;
17141;SDS011;32805;53.556;9.944;2022-09-09T13:02:18;3.60;;;1.85;;
17141;SDS011;32805;53.556;9.944;2022-09-09T13:04:47;2.47;;;1.77;;
17141;SDS011;32805;53.556;9.944;2022-09-09T13:07:17;4.07;;;2.40;;
17141;SDS011;32805;53.556;9.944;2022-09-09T13:09:48;3.60;;;1.92;;
17141;SDS011;32805;53.556;9.944;2022-09-09T13:12:18;4.50;;;2.05;;
17141;SDS011;32805;53.556;9.944;2022-09-09T13:14:49;4.25;;;2.17;;
17141;SDS011;32805;53.556;9.944;2022-09-09T13:17:20;3.95;;;2.70;;
17141;SDS011;32805;53.556;9.944;2022-09-09T13:19:50;3.35;;;2.42;;
17141;SDS011;32805;53.556;9.944;2022-09-09T13:22:20;6.75;;;3.00;;
17141;SDS011;32805;53.556;9.944;2022-09-09T13:25:04;3.45;;;2.60;;
17141;SDS011;32805;53.556;9.944;2022-09-09T13:27:35;5.15;;;2.38;;
17141;SDS011;32805;53.556;9.944;2022-09-09T13:30:19;5.70;;;3.10;;
17141;SDS011;32805;53.556;9.944;2022-09-09T13:32:59;8.60;;;3.30;;
17141;SDS011;32805;53.556;9.944;2022-09-09T13:35:32;6.05;;;2.55;;
17141;SDS011;32805;53.556;9.944;2022-09-09T13:38:06;8.05;;;2.80;;
17141;SDS011;32805;53.556;9.944;2022-09-09T13:40:35;6.88;;;3.42;;
17141;SDS011;32805;53.556;9.944;2022-09-09T13:43:10;4.68;;;3.00;;
17141;SDS011;32805;53.556;9.944;2022-09-09T13:45:51;5.93;;;3.67;;
17141;SDS011;32805;53.556;9.944;2022-09-09T13:48:20;7.60;;;3.72;;
17141;SDS011;32805;53.556;9.944;2022-09-09T13:50:53;5.18;;;3.30;;
17141;SDS011;32805;53.556;9.944;2022-09-09T13:53:25;3.90;;;3.60;;
17141;SDS011;32805;53.556;9.944;2022-09-09T13:56:10;5.85;;;4.55;;
17141;SDS011;32805;53.556;9.944;2022-09-09T13:58:54;6.32;;;4.75;;
17141;SDS011;32805;53.556;9.944;2022-09-09T14:01:23;8.63;;;4.22;;
17141;SDS011;32805;53.556;9.944;2022-09-09T14:03:55;5.85;;;4.50;;
17141;SDS011;32805;53.556;9.944;2022-09-09T14:06:22;5.47;;;4.47;;
17141;SDS011;32805;53.556;9.944;2022-09-09T14:08:50;6.07;;;4.78;;
17141;SDS011;32805;53.556;9.944;2022-09-09T14:11:18;7.45;;;4.05;;
17141;SDS011;32805;53.556;9.944;2022-09-09T14:13:47;6.65;;;5.00;;
17141;SDS011;32805;53.556;9.944;2022-09-09T14:16:17;7.30;;;5.00;;
17141;SDS011;32805;53.556;9.944;2022-09-09T14:18:45;6.40;;;4.50;;
17141;SDS011;32805;53.556;9.944;2022-09-09T14:21:13;9.20;;;5.35;;
17141;SDS011;32805;53.556;9.944;2022-09-09T14:23:41;8.95;;;6.30;;
17141;SDS011;32805;53.556;9.944;2022-09-09T14:26:09;5.38;;;4.85;;
17141;SDS011;32805;53.556;9.944;2022-09-09T14:28:37;5.60;;;4.88;;
17141;SDS011;32805;53.556;9.944;2022-09-09T14:31:23;5.43;;;3.60;;
17141;SDS011;32805;53.556;9.944;2022-09-09T14:33:51;4.28;;;3.45;;
17141;SDS011;32805;53.556;9.944;2022-09-09T14:36:20;3.70;;;3.40;;
17141;SDS011;32805;53.556;9.944;2022-09-09T14:38:49;4.85;;;2.95;;
17141;SDS011;32805;53.556;9.944;2022-09-09T14:41:18;4.18;;;3.05;;
17141;SDS011;32805;53.556;9.944;2022-09-09T14:43:49;4.65;;;2.92;;
17141;SDS011;32805;53.556;9.944;2022-09-09T14:46:18;3.33;;;2.70;;
17141;SDS011;32805;53.556;9.944;2022-09-09T14:48:48;3.50;;;2.95;;
17141;SDS011;32805;53.556;9.944;2022-09-09T14:51:17;4.97;;;2.75;;
17141;SDS011;32805;53.556;9.944;2022-09-09T14:53:46;3.63;;;3.00;;
17141;SDS011;32805;53.556;9.944;2022-09-09T14:56:15;4.80;;;3.10;;
17141;SDS011;32805;53.556;9.944;2022-09-09T14:58:44;5.03;;;3.00;;
17141;SDS011;32805;53.556;9.944;2022-09-09T15:01:13;5.53;;;3.38;;
17141;SDS011;32805;53.556;9.944;2022-09-09T15:03:43;3.53;;;3.15;;
17141;SDS011;32805;53.556;9.944;2022-09-09T15:06:17;4.50;;;2.80;;
17141;SDS011;32805;53.556;9.944;2022-09-09T15:08:45;3.53;;;3.00;;
17141;SDS011;32805;53.556;9.944;2022-09-09T15:11:14;6.50;;;3.00;;
17141;SDS011;32805;53.556;9.944;2022-09-09T15:13:42;4.03;;;3.22;;
17141;SDS011;32805;53.556;9.944;2022-09-09T15:16:11;5.15;;;2.70;;
17141;SDS011;32805;53.556;9.944;2022-09-09T15:18:40;3.17;;;2.53;;
17141;SDS011;32805;53.556;9.944;2022-09-09T15:21:09;2.50;;;2.30;;